Time;durP1;ratioP1;P1;durP2;ratioP2;P2;SDS_P1;SDS_P2;PMS_P1;PMS_P2;Temp;Humidity;BMP_temperature;BMP_pressure;BME280_temperature;BME280_humidity;BME280_pressure;Samples;Min_cycle;Max_cycle;Signal;HPM_P1;HPM_P2
2022/08/17 00:00:23;;;;;;;24.02;19.27;;;;;;;-140.72;100.00;52311.72;4985838;28;20125;-73
2022/08/17 00:02:59;;;;;;;19.42;16.88;;;;;;;-140.72;100.00;52356.38;4970993;28;20069;-73
2022/08/17 00:05:25;;;;;;;20.13;16.90;;;;;;;-140.72;100.00;52311.72;4973162;28;20023;-73
2022/08/17 00:07:51;;;;;;;20.58;15.27;;;;;;;-140.72;100.00;52299.56;4972786;28;20023;-73
2022/08/17 00:10:16;;;;;;;20.05;17.60;;;;;;;-140.72;100.00;52340.13;4982634;28;20553;-74
2022/08/17 00:12:44;;;;;;;22.10;17.88;;;;;;;-140.72;100.00;52321.88;4968908;28;20031;-73
2022/08/17 00:15:10;;;;;;;20.90;17.25;;;;;;;-140.72;100.00;52372.59;4970565;28;20059;-73
2022/08/17 00:17:36;;;;;;;23.38;18.00;;;;;;;-140.72;100.00;52315.78;4971302;28;20057;-72
2022/08/17 00:20:03;;;;;;;21.40;17.23;;;;;;;-140.72;100.00;52340.13;4971020;28;20027;-73
2022/08/17 00:22:28;;;;;;;21.75;17.80;;;;;;;-140.72;100.00;52350.28;4986158;28;20043;-73
2022/08/17 00:24:53;;;;;;;20.90;17.40;;;;;;;-140.72;100.00;52309.69;4977281;28;20073;-73
2022/08/17 00:27:19;;;;;;;18.30;16.38;;;;;;;-140.72;100.00;52336.06;4982408;28;20035;-73
2022/08/17 00:29:44;;;;;;;20.05;17.60;;;;;;;-140.72;100.00;52348.25;4970380;28;20062;-72
2022/08/17 00:32:13;;;;;;;21.85;16.92;;;;;;;-140.72;100.00;52303.59;4971737;28;20477;-73
2022/08/17 00:34:38;;;;;;;21.27;16.98;;;;;;;-140.72;100.00;52346.22;4985459;28;20062;-73
2022/08/17 00:37:04;;;;;;;22.70;17.17;;;;;;;-140.72;100.00;52356.38;4986710;28;20038;-73
2022/08/17 00:39:29;;;;;;;21.20;18.35;;;;;;;-140.72;100.00;52344.19;4971420;28;20027;-72
2022/08/17 00:41:54;;;;;;;22.38;16.50;;;;;;;-140.72;100.00;52342.16;4986494;28;20464;-74
2022/08/17 00:44:20;;;;;;;22.63;19.52;;;;;;;-140.72;100.00;52352.31;4970662;28;20027;-73
2022/08/17 00:46:46;;;;;;;21.55;18.33;;;;;;;-140.72;100.00;52374.63;4969302;28;20540;-73
2022/08/17 00:49:15;;;;;;;20.88;17.65;;;;;;;-140.72;100.00;52309.69;4986474;28;20499;-73
2022/08/17 00:51:46;;;;;;;23.08;18.13;;;;;;;-140.72;100.00;52305.63;4971280;28;20081;-73
2022/08/17 00:54:19;;;;;;;21.67;18.30;;;;;;;-140.72;100.00;52323.91;4975412;28;20031;-73
2022/08/17 00:56:49;;;;;;;21.27;17.85;;;;;;;-140.72;100.00;52374.63;4960347;28;20070;-73
2022/08/17 00:59:24;;;;;;;21.48;18.30;;;;;;;-140.72;100.00;52332.03;4967242;28;20030;-73
2022/08/17 01:01:50;;;;;;;21.27;18.98;;;;;;;-140.72;100.00;52317.81;4971896;28;20030;-74
2022/08/17 01:04:18;;;;;;;24.08;18.70;;;;;;;-140.72;100.00;52334.03;4968916;28;20037;-73
2022/08/17 01:06:47;;;;;;;20.48;16.58;;;;;;;-140.72;100.00;52360.44;4969355;28;20030;-73
2022/08/17 01:09:13;;;;;;;21.50;15.63;;;;;;;-140.72;100.00;52364.47;4969888;28;20121;-74
2022/08/17 01:11:39;;;;;;;18.35;15.07;;;;;;;-140.72;100.00;52360.44;4970105;28;20031;-74
2022/08/17 01:14:07;;;;;;;19.42;15.93;;;;;;;-140.72;100.00;52352.31;4966377;28;20034;-74
2022/08/17 01:16:33;;;;;;;21.05;16.25;;;;;;;-140.72;100.00;52366.50;4986198;28;20027;-74
2022/08/17 01:19:07;;;;;;;22.17;15.77;;;;;;;-140.72;100.00;52321.88;4970989;28;20093;-74
2022/08/17 01:22:15;;;;;;;22.17;17.30;;;;;;;-140.72;100.00;52346.22;4968049;28;20420;-74
2022/08/17 01:24:46;;;;;;;20.92;16.00;;;;;;;-140.72;100.00;52386.81;4976303;28;20023;-74
2022/08/17 01:27:13;;;;;;;21.52;18.30;;;;;;;-140.72;100.00;52321.88;4969120;28;20042;-75
2022/08/17 01:29:42;;;;;;;20.63;17.38;;;;;;;-140.72;100.00;52334.03;4975514;28;20414;-74
2022/08/17 01:32:08;;;;;;;19.52;16.65;;;;;;;-140.72;100.00;52338.09;4983438;28;20030;-74
2022/08/17 01:34:33;;;;;;;20.70;16.83;;;;;;;-140.72;100.00;52330.00;4968671;28;20107;-73
2022/08/17 01:36:59;;;;;;;19.67;15.90;;;;;;;-140.72;100.00;52358.41;4986449;28;20042;-73
2022/08/17 01:39:44;;;;;;;18.45;15.50;;;;;;;-140.72;100.00;52370.56;4970090;28;20432;-74
2022/08/17 01:42:24;;;;;;;21.35;17.55;;;;;;;-140.72;100.00;52325.94;4979564;28;20785;-74
2022/08/17 01:44:57;;;;;;;19.90;16.67;;;;;;;-140.72;100.00;52348.25;4985423;28;20070;-74
2022/08/17 01:47:23;;;;;;;22.95;18.70;;;;;;;-140.72;100.00;52354.34;4981638;28;20042;-74
2022/08/17 01:49:48;;;;;;;24.08;20.27;;;;;;;-140.72;100.00;52352.31;4960238;28;20387;-73
2022/08/17 01:52:14;;;;;;;25.65;20.45;;;;;;;-140.72;100.00;52338.09;4969563;28;20585;-76
2022/08/17 01:54:45;;;;;;;24.88;20.92;;;;;;;-140.72;100.00;52346.22;4968364;28;20069;-75
2022/08/17 01:57:11;;;;;;;25.02;21.35;;;;;;;-140.72;100.00;52334.03;4984494;28;20043;-76
2022/08/17 01:59:37;;;;;;;26.20;22.20;;;;;;;-140.72;100.00;52354.34;4965242;28;20476;-73
2022/08/17 02:02:04;;;;;;;24.77;20.23;;;;;;;-140.72;100.00;52325.94;4985795;28;20105;-74
2022/08/17 02:04:30;;;;;;;22.40;18.83;;;;;;;-140.72;100.00;52311.72;4970199;28;20031;-74
2022/08/17 02:06:57;;;;;;;22.45;19.67;;;;;;;-140.72;100.00;52321.88;4989437;28;20549;-73
2022/08/17 02:09:24;;;;;;;16.77;15.07;;;;;;;-140.72;100.00;52332.03;4989178;28;20065;-75
2022/08/17 02:11:50;;;;;;;20.40;16.95;;;;;;;-140.72;100.00;52334.03;4972455;28;20084;-75
2022/08/17 02:14:16;;;;;;;18.17;15.82;;;;;;;-140.72;100.00;52372.59;4974278;28;20031;-75
2022/08/17 02:16:42;;;;;;;23.15;17.92;;;;;;;-140.72;100.00;52346.22;4972128;28;20073;-74
2022/08/17 02:19:11;;;;;;;18.70;15.55;;;;;;;-140.72;100.00;52364.47;4988323;28;20415;-73
2022/08/17 02:21:38;;;;;;;14.90;13.40;;;;;;;-140.72;100.00;52342.16;4974417;28;20073;-75
2022/08/17 02:24:06;;;;;;;16.65;14.85;;;;;;;-140.72;100.00;52350.28;4987428;28;20038;-75
2022/08/17 02:26:32;;;;;;;17.70;15.77;;;;;;;-140.72;100.00;52305.63;4974630;28;20042;-74
2022/08/17 02:28:57;;;;;;;17.25;14.90;;;;;;;-140.72;100.00;52374.63;4974396;28;20030;-76
2022/08/17 02:31:22;;;;;;;17.98;14.07;;;;;;;-140.72;100.00;52354.34;4971488;28;20031;-74
2022/08/17 02:33:48;;;;;;;20.23;15.60;;;;;;;-140.72;100.00;52384.78;4967862;28;20264;-74
2022/08/17 02:36:13;;;;;;;17.23;14.77;;;;;;;-140.72;100.00;52327.97;4969983;28;20062;-75
2022/08/17 02:38:39;;;;;;;15.45;13.23;;;;;;;-140.72;100.00;52334.03;4984664;28;20023;-74
2022/08/17 02:41:05;;;;;;;15.48;13.82;;;;;;;-140.72;100.00;52390.84;4989182;28;20483;-73
2022/08/17 02:43:31;;;;;;;17.88;14.43;;;;;;;-140.72;100.00;52380.72;4973808;28;20081;-72
2022/08/17 02:45:57;;;;;;;16.08;13.77;;;;;;;-140.72;100.00;52374.63;4973778;28;20030;-72
2022/08/17 02:48:22;;;;;;;18.02;13.43;;;;;;;-140.72;100.00;52439.56;4973898;28;20110;-72
2022/08/17 02:50:48;;;;;;;15.80;14.10;;;;;;;-140.72;100.00;52388.84;4979383;28;20031;-72
2022/08/17 02:53:13;;;;;;;17.80;13.30;;;;;;;-140.72;100.00;52386.81;4972567;28;20081;-72
2022/08/17 02:55:41;;;;;;;17.92;14.55;;;;;;;-140.72;100.00;52374.63;4974195;28;20050;-72
2022/08/17 02:58:09;;;;;;;16.70;13.07;;;;;;;-140.72;100.00;52392.88;4988012;28;20058;-72
2022/08/17 03:00:41;;;;;;;17.45;13.35;;;;;;;-140.72;100.00;52405.06;4971309;28;20034;-71
2022/08/17 03:03:09;;;;;;;15.48;13.75;;;;;;;-140.72;100.00;52415.22;4988089;28;20487;-71
2022/08/17 03:05:36;;;;;;;17.98;12.82;;;;;;;-140.72;100.00;52415.22;4972398;28;20038;-71
2022/08/17 03:08:03;;;;;;;20.65;11.75;;;;;;;-140.72;100.00;52401.00;4960056;28;20036;-73
2022/08/17 03:10:28;;;;;;;13.38;11.38;;;;;;;-140.72;100.00;52423.31;4967237;28;20118;-71
2022/08/17 03:12:54;;;;;;;11.85;9.23;;;;;;;-140.72;100.00;52435.50;4974049;28;20178;-71
2022/08/17 03:15:24;;;;;;;14.13;10.15;;;;;;;-140.72;100.00;52384.78;4990289;28;20050;-71
2022/08/17 03:17:51;;;;;;;11.45;10.25;;;;;;;-140.72;100.00;52423.31;4990587;28;20082;-70
2022/08/17 03:20:17;;;;;;;12.40;10.68;;;;;;;-140.72;100.00;52378.69;4973070;28;20419;-71
2022/08/17 03:22:45;;;;;;;16.02;10.45;;;;;;;-140.72;100.00;52425.34;4971674;28;20038;-71
2022/08/17 03:25:13;;;;;;;13.40;10.60;;;;;;;-140.72;100.00;52457.81;4987544;28;20098;-73
2022/08/17 03:27:39;;;;;;;12.93;9.85;;;;;;;-140.72;100.00;52419.28;4971847;28;20055;-72
2022/08/17 03:30:06;;;;;;;14.57;10.52;;;;;;;-140.72;100.00;52423.31;4972346;28;20184;-72
2022/08/17 03:32:41;;;;;;;11.13;9.13;;;;;;;-140.72;100.00;52407.09;4971678;28;20066;-72
2022/08/17 03:35:12;;;;;;;12.15;9.60;;;;;;;-140.72;100.00;52427.38;4981784;28;20051;-73
2022/08/17 03:37:38;;;;;;;11.23;9.40;;;;;;;-140.72;100.00;52431.44;4982796;28;20053;-73
2022/08/17 03:40:05;;;;;;;18.73;11.20;;;;;;;-140.72;100.00;52398.97;4973234;28;20031;-72
2022/08/17 03:42:31;;;;;;;9.75;8.73;;;;;;;-140.72;100.00;52443.63;4972463;28;20093;-73
2022/08/17 03:44:57;;;;;;;13.70;10.98;;;;;;;-140.72;100.00;52417.25;4972981;28;20027;-72
2022/08/17 03:58:24;;;;;;;10.77;9.00;;;;;;;-140.72;100.00;52455.78;4972885;28;20570;-72
2022/08/17 04:00:49;;;;;;;16.75;10.55;;;;;;;-140.72;100.00;52433.47;4971495;28;20054;-71
2022/08/17 04:03:16;;;;;;;14.60;11.23;;;;;;;-140.72;100.00;52419.28;4970144;28;20027;-72
2022/08/17 04:05:44;;;;;;;11.32;10.15;;;;;;;-140.72;100.00;52421.28;4970933;28;20027;-72
2022/08/17 04:08:10;;;;;;;14.75;10.95;;;;;;;-140.72;100.00;52421.28;4970982;28;20034;-72
2022/08/17 04:10:36;;;;;;;11.98;10.63;;;;;;;-140.72;100.00;52429.41;4967025;28;20027;-71
2022/08/17 04:13:02;;;;;;;14.77;11.40;;;;;;;-140.72;100.00;52417.25;4963058;28;20038;-71
2022/08/17 04:15:29;;;;;;;15.57;12.02;;;;;;;-140.72;100.00;52435.50;4973881;28;20027;-71
2022/08/17 04:17:55;;;;;;;16.35;12.13;;;;;;;-140.72;100.00;52441.59;4977768;28;20095;-71
2022/08/17 04:20:23;;;;;;;14.35;12.40;;;;;;;-140.72;100.00;52453.75;4969788;28;20027;-70
2022/08/17 04:23:04;;;;;;;15.13;12.18;;;;;;;-140.72;100.00;52439.56;4969635;28;20035;-72
2022/08/17 04:25:32;;;;;;;13.35;11.95;;;;;;;-140.72;100.00;52413.19;4967669;28;20380;-74
2022/08/17 04:28:03;;;;;;;16.33;13.50;;;;;;;-140.72;100.00;52429.41;4983115;28;20067;-74
2022/08/17 04:30:31;;;;;;;16.38;14.02;;;;;;;-140.72;100.00;52429.41;4968190;28;20549;-72
2022/08/17 04:33:15;;;;;;;17.00;14.23;;;;;;;-140.72;100.00;52425.34;4975497;28;20498;-71
2022/08/17 04:35:45;;;;;;;17.90;14.98;;;;;;;-140.72;100.00;52409.13;4985149;28;20027;-71
2022/08/17 04:38:15;;;;;;;16.70;13.98;;;;;;;-140.72;100.00;52435.50;4972686;28;20159;-74
2022/08/17 04:43:26;;;;;;;17.38;13.77;;;;;;;-140.72;100.00;52396.94;4969446;28;20092;-72
2022/08/17 04:45:57;;;;;;;18.60;14.95;;;;;;;-140.72;100.00;52439.56;4968843;28;20030;-70
2022/08/17 04:48:25;;;;;;;17.92;15.02;;;;;;;-140.72;100.00;52411.16;4970545;28;20027;-71
2022/08/17 04:50:51;;;;;;;20.17;17.00;;;;;;;-140.72;100.00;52415.22;4965522;28;20027;-73
2022/08/17 04:53:18;;;;;;;18.60;15.88;;;;;;;-140.72;100.00;52419.28;4967758;28;20349;-72
2022/08/17 04:55:43;;;;;;;20.42;16.70;;;;;;;-140.72;100.00;52423.31;4969340;28;20089;-73
2022/08/17 04:58:09;;;;;;;21.98;16.95;;;;;;;-140.72;100.00;52451.72;4984151;28;20031;-72
2022/08/17 05:00:36;;;;;;;19.40;17.38;;;;;;;-140.72;100.00;52453.75;4969123;28;20039;-69
2022/08/17 05:03:01;;;;;;;19.17;16.60;;;;;;;-140.72;100.00;52459.84;4970224;28;20035;-72
2022/08/17 05:05:30;;;;;;;19.67;15.90;;;;;;;-140.72;100.00;52467.97;4969316;28;20173;-73
2022/08/17 05:07:58;;;;;;;17.10;15.45;;;;;;;-140.72;100.00;52419.28;4985286;28;20035;-72
2022/08/17 05:10:28;;;;;;;16.58;14.93;;;;;;;-140.72;100.00;52415.22;4967243;28;20027;-70
2022/08/17 05:12:58;;;;;;;18.60;15.63;;;;;;;-140.72;100.00;52463.91;4982004;28;20395;-71
2022/08/17 05:15:25;;;;;;;21.17;15.05;;;;;;;-140.72;100.00;52413.19;4968531;28;20121;-72
2022/08/17 05:17:51;;;;;;;18.83;14.10;;;;;;;-140.72;100.00;52472.03;4968895;28;20134;-71
2022/08/17 05:20:16;;;;;;;16.58;14.57;;;;;;;-140.72;100.00;52401.00;4984452;28;20125;-72
2022/08/17 05:22:50;;;;;;;17.20;14.40;;;;;;;-140.72;100.00;52439.56;4977743;28;20113;-71
2022/08/17 05:25:21;;;;;;;16.13;13.27;;;;;;;-140.72;100.00;52443.63;4969984;28;20030;-70
2022/08/17 05:27:47;;;;;;;16.25;14.27;;;;;;;-140.72;100.00;52427.38;4969845;28;20085;-70
2022/08/17 05:30:13;;;;;;;15.23;13.52;;;;;;;-140.72;100.00;52427.38;4968581;28;20034;-70
2022/08/17 05:32:39;;;;;;;17.15;13.98;;;;;;;-140.72;100.00;52433.47;4984988;28;20026;-71
2022/08/17 05:35:05;;;;;;;17.15;14.25;;;;;;;-140.72;100.00;52433.47;4929104;28;1137659;-70
2022/08/17 05:37:33;;;;;;;20.35;15.40;;;;;;;-140.72;100.00;52431.44;4970821;28;20039;-70
2022/08/17 05:39:58;;;;;;;14.18;12.68;;;;;;;-140.72;100.00;52411.16;4972847;28;20068;-70
2022/08/17 05:42:24;;;;;;;17.42;13.95;;;;;;;-140.72;100.00;52394.91;4975026;28;20514;-70
2022/08/17 05:44:49;;;;;;;15.65;14.05;;;;;;;-140.72;100.00;52455.78;4973793;28;20078;-71
2022/08/17 05:47:16;;;;;;;16.42;12.55;;;;;;;-140.72;100.00;52411.16;4980060;28;20446;-70
2022/08/17 05:49:41;;;;;;;17.38;14.65;;;;;;;-140.72;100.00;52455.78;4974028;28;20475;-71
2022/08/17 05:52:22;;;;;;;15.27;12.77;;;;;;;-140.72;100.00;52398.97;4989164;28;20117;-67
2022/08/17 05:54:56;;;;;;;14.63;13.13;;;;;;;-140.72;100.00;52429.41;4972364;28;20093;-69
2022/08/17 05:57:27;;;;;;;17.85;14.50;;;;;;;-140.72;100.00;52415.22;4972336;28;20023;-69
2022/08/17 05:59:56;;;;;;;16.40;13.00;;;;;;;-140.72;100.00;52435.50;4974158;28;20078;-70
2022/08/17 06:02:42;;;;;;;12.55;11.25;;;;;;;-140.72;100.00;52467.97;4972646;28;20039;-71
2022/08/17 06:05:31;;;;;;;18.10;13.35;;;;;;;-140.72;100.00;52396.94;4987677;28;20035;-71
2022/08/17 06:08:14;;;;;;;15.23;11.57;;;;;;;-140.72;100.00;52423.31;4971805;28;20454;-71
2022/08/17 06:11:04;;;;;;;13.00;11.60;;;;;;;-140.72;100.00;52427.38;4987830;28;20278;-70
2022/08/17 06:14:22;;;;;;;12.68;11.15;;;;;;;-140.72;100.00;52451.72;4972119;28;20221;-71
2022/08/17 06:16:54;;;;;;;15.10;13.38;;;;;;;-140.72;100.00;52425.34;4967041;28;20034;-71
2022/08/17 06:19:32;;;;;;;16.73;13.10;;;;;;;-140.72;100.00;52451.72;4972823;28;20146;-71
2022/08/17 06:22:01;;;;;;;15.55;13.07;;;;;;;-140.72;100.00;52492.31;4973001;28;20047;-72
2022/08/17 06:24:36;;;;;;;19.25;13.48;;;;;;;-140.72;100.00;52417.25;4968164;28;20031;-72
2022/08/17 06:27:17;;;;;;;15.18;13.57;;;;;;;-140.72;100.00;52451.72;4981910;28;20035;-72
2022/08/17 06:30:07;;;;;;;15.68;13.40;;;;;;;-140.72;100.00;52407.09;4970580;28;20073;-71
2022/08/17 06:32:34;;;;;;;18.45;13.98;;;;;;;-140.72;100.00;52427.38;4972156;28;20046;-72
2022/08/17 06:35:02;;;;;;;19.05;14.00;;;;;;;-140.72;100.00;52390.84;4967433;28;20130;-71
2022/08/17 06:37:40;;;;;;;15.88;12.70;;;;;;;-140.72;100.00;52407.09;4981660;28;20365;-71
2022/08/17 06:40:20;;;;;;;15.73;13.93;;;;;;;-140.72;100.00;52419.28;4984221;28;20085;-72
2022/08/17 06:43:11;;;;;;;17.08;13.43;;;;;;;-140.72;100.00;52419.28;4972755;28;20070;-71
2022/08/17 06:45:48;;;;;;;13.80;12.10;;;;;;;-140.72;100.00;52407.09;4971846;28;20096;-71
2022/08/17 06:49:06;;;;;;;15.38;12.63;;;;;;;-140.72;100.00;52388.84;4972691;28;20027;-72
2022/08/17 06:51:39;;;;;;;14.45;11.68;;;;;;;-140.72;100.00;52419.28;4899076;29;20084;-71
2022/08/17 06:54:14;;;;;;;17.05;12.63;;;;;;;-140.72;100.00;52427.38;4913929;29;20092;-71
2022/08/17 06:56:52;;;;;;;14.07;12.15;;;;;;;-140.72;100.00;52390.84;4953335;28;20046;-73
2022/08/17 06:59:24;;;;;;;13.18;11.52;;;;;;;-140.72;100.00;52392.88;4973324;28;20038;-72
2022/08/17 07:01:51;;;;;;;14.32;12.10;;;;;;;-140.72;100.00;52413.19;4972753;28;20034;-71
2022/08/17 07:04:20;;;;;;;14.75;11.98;;;;;;;-140.72;100.00;52447.69;4973522;28;20093;-72
2022/08/17 07:06:53;;;;;;;12.63;10.68;;;;;;;-140.72;100.00;52453.75;4972023;28;20046;-71
2022/08/17 07:09:22;;;;;;;15.45;12.55;;;;;;;-140.72;100.00;52433.47;4972388;28;20472;-72
2022/08/17 07:12:00;;;;;;;14.15;11.77;;;;;;;-140.72;100.00;52398.97;4971771;28;20031;-71
2022/08/17 07:14:55;;;;;;;12.65;10.75;;;;;;;-140.72;100.00;52431.44;4959795;28;20027;-72
2022/08/17 07:17:23;;;;;;;14.88;12.82;;;;;;;-140.72;100.00;52425.34;4970375;28;20043;-70
2022/08/17 07:19:53;;;;;;;15.18;12.38;;;;;;;-140.72;100.00;52386.81;4970561;28;20027;-70
2022/08/17 07:22:29;;;;;;;12.45;11.15;;;;;;;-140.72;100.00;52407.09;4972067;28;20042;-71
2022/08/17 07:24:58;;;;;;;14.32;11.10;;;;;;;-140.72;100.00;52405.06;4970995;28;20058;-71
2022/08/17 07:27:30;;;;;;;14.15;11.63;;;;;;;-140.72;100.00;52403.03;4971820;28;20037;-70
2022/08/17 07:30:18;;;;;;;15.02;12.32;;;;;;;-140.72;100.00;52403.03;4973077;28;20590;-71
2022/08/17 07:32:58;;;;;;;17.42;12.65;;;;;;;-140.72;100.00;52407.09;4985654;28;20396;-71
2022/08/17 07:35:27;;;;;;;11.88;10.20;;;;;;;-140.72;100.00;52390.84;4962283;28;20061;-72
2022/08/17 07:38:14;;;;;;;10.63;8.93;;;;;;;-140.72;100.00;52419.28;4988045;28;20062;-72
2022/08/17 07:40:43;;;;;;;12.02;9.95;;;;;;;-140.72;100.00;52394.91;4976964;28;20041;-72
2022/08/17 07:43:08;;;;;;;10.88;9.77;;;;;;;-140.72;100.00;52360.44;4971259;28;20796;-73
2022/08/17 07:48:37;;;;;;;11.15;9.95;;;;;;;-140.72;100.00;52386.81;4963357;28;20793;-72
2022/08/17 07:51:16;;;;;;;13.75;9.18;;;;;;;-140.72;100.00;52356.38;4969152;28;20022;-73
2022/08/17 07:53:44;;;;;;;9.90;8.88;;;;;;;-140.72;100.00;52344.19;4973325;28;20035;-72
2022/08/17 07:56:09;;;;;;;8.68;7.60;;;;;;;-140.72;100.00;52398.97;4970826;28;20034;-72
2022/08/17 07:58:35;;;;;;;9.38;8.32;;;;;;;-140.72;100.00;52362.44;4973025;28;20053;-72
2022/08/17 08:01:17;;;;;;;11.07;7.68;;;;;;;-140.72;100.00;52348.25;4966751;28;20027;-72
2022/08/17 08:03:45;;;;;;;9.20;7.70;;;;;;;-140.72;100.00;52332.03;4969902;28;20029;-73
2022/08/17 08:06:25;;;;;;;9.70;7.03;;;;;;;-140.72;100.00;52346.22;4972379;28;20113;-73
2022/08/17 08:08:54;;;;;;;8.85;7.72;;;;;;;-140.72;100.00;52319.84;4985573;28;20038;-72
2022/08/17 08:11:31;;;;;;;;;;;;;;;-140.72;100.00;52350.28;4974231;28;20188;-72
2022/08/17 08:14:19;;;;;;;8.18;7.07;;;;;;;-140.72;100.00;52325.94;4969062;28;19918;-73
2022/08/17 08:17:00;;;;;;;8.82;6.70;;;;;;;-140.72;100.00;52342.16;4976889;28;20045;-73
2022/08/17 08:19:28;;;;;;;7.20;6.15;;;;;;;-140.72;100.00;52338.09;4971201;28;20031;-72
2022/08/17 08:22:00;;;;;;;8.18;6.53;;;;;;;-140.72;100.00;52336.06;4985110;28;20041;-73
2022/08/17 08:24:56;;;;;;;7.82;5.85;;;;;;;-140.72;100.00;52396.94;4962524;28;20141;-74
2022/08/17 08:27:44;;;;;;;6.80;5.68;;;;;;;-140.72;100.00;52344.19;4985984;28;20121;-73
2022/08/17 08:30:15;;;;;;;6.07;5.47;;;;;;;-140.72;100.00;52350.28;4970941;28;20066;-73
2022/08/17 08:32:49;;;;;;;8.77;6.47;;;;;;;-140.72;100.00;52342.16;4969762;28;20030;-73
2022/08/17 08:35:31;;;;;;;6.72;5.95;;;;;;;-140.72;100.00;52327.97;4969738;28;20051;-73
2022/08/17 08:38:08;;;;;;;7.15;6.43;;;;;;;-140.72;100.00;52366.50;4983840;28;20501;-73
2022/08/17 08:41:12;;;;;;;5.80;5.20;;;;;;;-140.72;100.00;52376.66;4985290;28;20066;-71
2022/08/17 08:43:49;;;;;;;7.70;6.72;;;;;;;-140.72;100.00;52317.81;4984124;28;20323;-72
2022/08/17 08:46:34;;;;;;;7.32;6.35;;;;;;;-140.72;100.00;52330.00;4971585;28;20045;-71
2022/08/17 08:49:23;;;;;;;9.40;6.95;;;;;;;-140.72;100.00;52372.59;4973832;28;20456;-71
2022/08/17 08:51:51;;;;;;;;;;;;;;;-140.72;100.00;52338.09;4964946;28;20023;-72
2022/08/17 08:54:35;;;;;;;9.43;7.53;;;;;;;-140.72;100.00;52346.22;4967367;28;20602;-70
2022/08/17 08:57:24;;;;;;;7.60;6.80;;;;;;;-140.72;100.00;52356.38;4967631;28;20410;-71
2022/08/17 09:00:22;;;;;;;10.57;8.35;;;;;;;-140.72;100.00;52354.34;4985605;28;20450;-71
2022/08/17 09:02:57;;;;;;;10.10;8.75;;;;;;;-140.72;100.00;52380.72;4962870;28;20026;-70
2022/08/17 09:06:02;;;;;;;9.35;7.78;;;;;;;-140.72;100.00;52409.13;4970133;28;20031;-70
2022/08/17 09:08:36;;;;;;;9.10;8.10;;;;;;;-140.72;100.00;52386.81;4963065;28;20407;-72
2022/08/17 09:11:21;;;;;;;11.07;9.02;;;;;;;-140.72;100.00;52398.97;4970793;28;20085;-71
2022/08/17 09:14:11;;;;;;;8.52;7.55;;;;;;;-140.72;100.00;52372.59;4985425;28;20042;-70
2022/08/17 09:16:41;;;;;;;8.60;7.55;;;;;;;-140.72;100.00;52405.06;4968987;28;20399;-72
2022/08/17 09:19:18;;;;;;;10.05;7.47;;;;;;;-140.72;100.00;52423.31;4970098;28;20372;-71
2022/08/17 09:21:53;;;;;;;9.60;6.60;;;;;;;-140.72;100.00;52354.34;4970055;28;20022;-71
2022/08/17 09:24:34;;;;;;;7.43;6.68;;;;;;;-140.72;100.00;52407.09;4984007;28;20035;-71
2022/08/17 09:27:07;;;;;;;7.03;5.95;;;;;;;-140.72;100.00;52354.34;4966055;28;20019;-71
2022/08/17 09:29:38;;;;;;;7.15;5.60;;;;;;;-140.72;100.00;52398.97;4968070;28;20034;-70
2022/08/17 09:32:16;;;;;;;6.45;5.38;;;;;;;-140.72;100.00;52368.53;4959104;28;20034;-71
2022/08/17 09:34:55;;;;;;;5.90;4.88;;;;;;;-140.72;100.00;52388.84;4963953;28;20054;-71
2022/08/17 09:37:33;;;;;;;5.38;4.78;;;;;;;-140.72;100.00;52364.47;4983298;28;20066;-72
2022/08/17 09:40:22;;;;;;;5.38;4.43;;;;;;;-140.72;100.00;52364.47;4967069;28;20038;-73
2022/08/17 09:42:53;;;;;;;6.07;5.00;;;;;;;-140.72;100.00;52346.22;4984395;28;20123;-72
2022/08/17 09:45:38;;;;;;;6.25;5.03;;;;;;;-140.72;100.00;52378.69;4969124;28;20395;-71
2022/08/17 09:48:18;;;;;;;8.63;5.13;;;;;;;-140.72;100.00;52370.56;4966896;28;20034;-71
2022/08/17 09:50:54;;;;;;;7.47;5.13;;;;;;;-140.72;100.00;52380.72;4970159;28;20026;-72
2022/08/17 09:53:20;;;;;;;5.75;4.80;;;;;;;-140.72;100.00;52370.56;4969789;28;20058;-72
2022/08/17 09:56:07;;;;;;;7.70;4.72;;;;;;;-140.72;100.00;52376.66;4969976;28;20038;-73
2022/08/17 09:59:12;;;;;;;7.07;5.00;;;;;;;-140.72;100.00;52342.16;4969736;28;20023;-72
2022/08/17 10:01:41;;;;;;;7.05;5.13;;;;;;;-140.72;100.00;52372.59;4964842;28;20041;-69
2022/08/17 10:04:06;;;;;;;5.73;4.57;;;;;;;-140.72;100.00;52362.44;4968902;28;20027;-73
2022/08/17 10:06:46;;;;;;;5.77;5.13;;;;;;;-140.72;100.00;52382.75;4970141;28;20131;-71
2022/08/17 10:09:20;;;;;;;6.32;4.60;;;;;;;-140.72;100.00;52370.56;4968154;28;20270;-71
2022/08/17 10:14:49;;;;;;;6.28;5.28;;;;;;;-140.72;100.00;52350.28;4970601;28;20038;-72
2022/08/17 10:17:31;;;;;;;8.10;5.33;;;;;;;-140.72;100.00;52354.34;4970390;28;20034;-71
2022/08/17 10:20:02;;;;;;;6.68;5.93;;;;;;;-140.72;100.00;52325.94;4975046;28;20082;-70
2022/08/17 10:28:09;;;;;;;7.00;5.05;;;;;;;-140.72;100.00;52378.69;4972683;28;20045;-71
2022/08/17 10:30:43;;;;;;;7.88;5.28;;;;;;;-140.72;100.00;52346.22;4983687;28;20440;-71
2022/08/17 10:33:19;;;;;;;6.90;5.60;;;;;;;-140.72;100.00;52358.41;4972123;28;20054;-70
2022/08/17 10:36:28;;;;;;;6.45;5.80;;;;;;;-140.72;100.00;52346.22;4976385;28;20118;-70
2022/08/17 10:39:21;;;;;;;6.22;5.13;;;;;;;-140.72;100.00;52390.84;4950825;29;20035;-70
2022/08/17 10:41:51;;;;;;;7.60;5.82;;;;;;;-140.72;100.00;52354.34;4971512;28;20038;-70
2022/08/17 10:44:37;;;;;;;7.03;5.32;;;;;;;-140.72;100.00;52344.19;4987449;28;20023;-70
2022/08/17 10:47:17;;;;;;;8.00;5.40;;;;;;;-140.72;100.00;52362.44;4976276;28;20069;-71
2022/08/17 10:49:52;;;;;;;;;;;;;;;-140.72;100.00;52334.03;4973151;28;20046;-70
2022/08/17 10:52:27;;;;;;;6.25;5.13;;;;;;;-140.72;100.00;52356.38;4970135;28;19949;-70
2022/08/17 10:54:58;;;;;;;7.32;5.10;;;;;;;-140.72;100.00;52362.44;4972620;28;20376;-70
2022/08/17 10:57:32;;;;;;;6.43;5.80;;;;;;;-140.72;100.00;52382.75;4970976;28;20034;-71
2022/08/17 11:00:03;;;;;;;7.93;5.38;;;;;;;-140.72;100.00;52342.16;4972892;28;20566;-70
2022/08/17 11:02:37;;;;;;;7.35;5.13;;;;;;;-140.72;100.00;52362.44;4971169;28;20058;-70
2022/08/17 11:05:25;;;;;;;6.05;5.05;;;;;;;-140.72;100.00;52411.16;4970566;28;20046;-70
2022/08/17 11:08:24;;;;;;;7.00;5.35;;;;;;;-140.72;100.00;52354.34;4985097;28;20038;-69
2022/08/17 11:11:08;;;;;;;6.70;5.45;;;;;;;-140.72;100.00;52346.22;4969603;28;20026;-70
2022/08/17 11:13:46;;;;;;;6.05;5.38;;;;;;;-140.72;100.00;52370.56;4987400;28;20038;-70
2022/08/17 11:16:23;;;;;;;7.10;5.57;;;;;;;-140.72;100.00;52364.47;4971115;28;20066;-70
2022/08/17 11:19:03;;;;;;;5.40;4.90;;;;;;;-140.72;100.00;52374.63;4972481;28;20088;-69
2022/08/17 11:21:42;;;;;;;8.02;4.80;;;;;;;-140.72;100.00;52372.59;4971621;28;20031;-69
2022/08/17 11:24:27;;;;;;;5.85;5.18;;;;;;;-140.72;100.00;52396.94;4986572;28;20033;-69
2022/08/17 11:27:21;;;;;;;6.93;5.70;;;;;;;-140.72;100.00;52360.44;4972378;28;20042;-69
2022/08/17 11:29:46;;;;;;;6.47;5.25;;;;;;;-140.72;100.00;52396.94;4979551;28;20388;-71
2022/08/17 11:32:33;;;;;;;7.13;6.17;;;;;;;-140.72;100.00;52409.13;4970857;28;20031;-69
2022/08/17 11:35:33;;;;;;;7.32;6.07;;;;;;;-140.72;100.00;52376.66;4972131;28;20956;-71
2022/08/17 11:38:01;;;;;;;8.68;6.38;;;;;;;-140.72;100.00;52407.09;4969381;28;20439;-69
2022/08/17 11:41:04;;;;;;;8.43;6.30;;;;;;;-140.72;100.00;52423.31;4974975;28;20040;-69
2022/08/17 11:43:54;;;;;;;7.90;7.03;;;;;;;-140.72;100.00;52401.00;4970852;28;20027;-69
2022/08/17 11:52:55;;;;;;;7.75;6.95;;;;;;;-140.72;100.00;52398.97;4971879;28;20109;-69
2022/08/17 11:55:27;;;;;;;8.48;7.18;;;;;;;-140.72;100.00;52405.06;4961971;28;20038;-69
2022/08/17 11:58:00;;;;;;;10.52;8.10;;;;;;;-140.72;100.00;52398.97;4985376;28;20373;-69